Time;durP1;ratioP1;P1;durP2;ratioP2;P2;SDS_P1;SDS_P2;PMS_P1;PMS_P2;Temp;Humidity;BMP_temperature;BMP_pressure;BME280_temperature;BME280_humidity;BME280_pressure;Samples;Min_cycle;Max_cycle;Signal;HPM_P1;HPM_P2
2022/03/14 00:01:06;;;;;;;27.33;17.35;;;3.30;72.40;;;;;;5081172;28;20585;-49
2022/03/14 00:03:42;;;;;;;35.42;19.23;;;3.30;72.90;;;;;;5080649;28;20220;-46
2022/03/14 00:06:10;;;;;;;37.00;19.70;;;3.20;73.40;;;;;;5081184;28;20222;-49
2022/03/14 00:08:40;;;;;;;33.83;16.85;;;3.20;73.60;;;;;;5080451;28;20507;-48
2022/03/14 00:11:08;;;;;;;32.65;20.63;;;3.30;73.90;;;;;;5081225;28;20217;-48
2022/03/14 00:13:35;;;;;;;34.25;20.77;;;3.10;74.20;;;;;;5082830;28;20274;-51
2022/03/14 00:16:03;;;;;;;29.90;17.50;;;3.10;74.60;;;;;;5084849;28;20196;-45
2022/03/14 00:18:32;;;;;;;31.02;16.80;;;2.90;75.30;;;;;;5085959;28;20264;-50
2022/03/14 00:20:59;;;;;;;25.90;16.98;;;3.00;75.50;;;;;;5087667;28;20217;-46
2022/03/14 00:23:28;;;;;;;22.15;15.75;;;3.10;75.40;;;;;;5081135;28;20488;-49
2022/03/14 00:25:55;;;;;;;30.40;16.27;;;3.00;76.00;;;;;;5080707;28;20215;-47
2022/03/14 00:28:23;;;;;;;39.45;17.85;;;2.90;76.60;;;;;;5080452;28;20569;-46
2022/03/14 00:30:50;;;;;;;27.23;15.65;;;3.00;76.90;;;;;;5070898;28;20258;-47
2022/03/14 00:33:17;;;;;;;29.35;16.67;;;2.90;76.80;;;;;;5067927;28;20202;-45
2022/03/14 00:35:45;;;;;;;30.73;16.95;;;2.80;77.70;;;;;;5071257;28;20211;-46
2022/03/14 00:38:12;;;;;;;27.88;16.60;;;2.80;77.80;;;;;;5082611;28;20209;-45
2022/03/14 00:40:39;;;;;;;22.58;16.20;;;2.70;78.50;;;;;;5078963;28;20226;-47
2022/03/14 00:43:07;;;;;;;36.08;18.63;;;2.50;79.40;;;;;;5083310;28;20437;-47
2022/03/14 00:45:34;;;;;;;35.95;17.10;;;2.50;79.70;;;;;;5084499;28;20203;-45
2022/03/14 00:48:01;;;;;;;29.90;17.80;;;2.60;80.60;;;;;;5084213;28;20199;-46
2022/03/14 00:50:29;;;;;;;25.90;16.40;;;2.50;80.50;;;;;;5077517;28;20227;-44
2022/03/14 00:52:56;;;;;;;30.23;19.33;;;2.40;81.50;;;;;;5084243;28;20220;-45
2022/03/14 00:55:23;;;;;;;27.00;17.02;;;2.30;81.50;;;;;;5084967;28;20227;-49
2022/03/14 00:57:50;;;;;;;28.00;17.92;;;2.30;82.20;;;;;;5086375;28;20234;-48
2022/03/14 01:00:18;;;;;;;27.23;17.55;;;2.20;82.50;;;;;;5085615;28;20546;-49
2022/03/14 01:02:50;;;;;;;29.85;18.33;;;2.20;83.40;;;;;;5083959;28;20253;-44
2022/03/14 01:05:17;;;;;;;27.55;18.65;;;2.20;83.40;;;;;;5085376;28;20247;-48
2022/03/14 01:07:45;;;;;;;27.20;18.13;;;2.30;83.90;;;;;;5088207;28;20199;-50
2022/03/14 01:10:16;;;;;;;30.17;16.63;;;2.30;83.80;;;;;;5084705;28;20220;-48
2022/03/14 01:12:43;;;;;;;28.30;17.92;;;2.00;85.30;;;;;;5083814;28;20199;-47
2022/03/14 01:15:11;;;;;;;29.52;18.75;;;2.00;85.80;;;;;;5083245;28;20230;-47
2022/03/14 01:17:40;;;;;;;29.88;18.63;;;2.00;86.30;;;;;;5083443;28;20199;-49
2022/03/14 01:20:08;;;;;;;36.33;18.67;;;2.00;87.20;;;;;;5083467;28;20214;-49
2022/03/14 01:22:36;;;;;;;33.72;20.25;;;1.80;87.90;;;;;;5083417;28;20509;-47
2022/03/14 01:25:05;;;;;;;26.58;18.15;;;2.00;87.80;;;;;;5083671;28;20207;-46
2022/03/14 01:27:32;;;;;;;31.85;18.65;;;1.80;88.90;;;;;;5083380;28;20199;-48
2022/03/14 01:29:59;;;;;;;33.58;17.48;;;1.60;90.20;;;;;;5080973;28;20455;-47
2022/03/14 01:32:26;;;;;;;40.53;21.08;;;1.60;90.50;;;;;;5076815;28;20203;-47
2022/03/14 01:34:54;;;;;;;36.80;20.92;;;1.80;90.40;;;;;;5083679;28;20255;-47
2022/03/14 01:37:21;;;;;;;30.55;19.00;;;1.80;90.60;;;;;;5083491;28;20212;-46
2022/03/14 01:39:49;;;;;;;33.42;19.33;;;1.80;90.70;;;;;;5085306;28;20222;-50
2022/03/14 01:42:18;;;;;;;30.85;19.75;;;1.80;90.90;;;;;;5085197;28;20196;-51
2022/03/14 01:44:47;;;;;;;34.95;20.05;;;1.80;91.20;;;;;;5083393;28;20222;-44
2022/03/14 01:47:15;;;;;;;36.55;19.67;;;1.70;91.90;;;;;;5083642;28;20214;-49
2022/03/14 01:49:43;;;;;;;34.10;20.23;;;1.80;91.90;;;;;;5081130;28;20218;-49
2022/03/14 01:52:13;;;;;;;36.90;20.52;;;1.70;92.10;;;;;;5083097;28;20241;-45
2022/03/14 01:54:41;;;;;;;27.98;18.52;;;1.60;92.50;;;;;;5082391;28;20225;-47
2022/03/14 01:57:08;;;;;;;35.75;19.15;;;1.70;92.40;;;;;;5083317;28;20429;-47
2022/03/14 01:59:37;;;;;;;28.20;19.10;;;1.80;92.50;;;;;;5082369;28;20223;-47
2022/03/14 02:02:05;;;;;;;32.67;20.67;;;1.70;92.50;;;;;;5082867;28;20194;-49
2022/03/14 02:04:33;;;;;;;30.00;18.17;;;1.80;92.70;;;;;;5082368;28;20461;-47
2022/03/14 02:07:00;;;;;;;33.67;19.25;;;1.80;92.80;;;;;;5081200;28;20269;-45
2022/03/14 02:09:27;;;;;;;38.13;21.73;;;1.60;93.40;;;;;;5082651;28;20222;-48
2022/03/14 02:11:55;;;;;;;33.90;20.98;;;1.50;93.80;;;;;;5083085;28;20199;-49
2022/03/14 02:14:22;;;;;;;36.50;21.52;;;1.60;94.10;;;;;;5082708;28;20534;-49
2022/03/14 02:16:52;;;;;;;34.60;20.55;;;1.60;94.20;;;;;;5070888;28;20226;-46
2022/03/14 02:19:20;;;;;;;29.02;18.80;;;1.60;94.40;;;;;;5082279;28;20196;-49
2022/03/14 02:21:47;;;;;;;37.55;21.55;;;1.70;94.60;;;;;;5082496;28;20245;-47
2022/03/14 02:24:15;;;;;;;34.83;20.70;;;1.50;95.40;;;;;;5073805;28;20211;-47
2022/03/14 02:26:43;;;;;;;40.35;21.10;;;1.40;96.00;;;;;;5090797;28;20191;-46
2022/03/14 02:29:14;;;;;;;27.00;19.23;;;1.10;96.80;;;;;;5062134;28;20195;-45
2022/03/14 02:31:44;;;;;;;26.30;19.58;;;1.30;97.00;;;;;;5062224;28;20200;-45
2022/03/14 02:34:11;;;;;;;27.00;18.83;;;1.40;96.70;;;;;;5061752;28;20219;-46
2022/03/14 02:36:39;;;;;;;31.88;19.52;;;1.40;96.80;;;;;;5062415;28;20218;-47
2022/03/14 02:39:07;;;;;;;36.10;20.60;;;1.20;97.20;;;;;;5061988;28;20389;-46
2022/03/14 02:41:36;;;;;;;30.95;20.52;;;1.30;97.60;;;;;;5072045;28;20228;-45
2022/03/14 02:44:06;;;;;;;34.65;19.48;;;1.20;97.90;;;;;;5081866;28;20210;-47
2022/03/14 02:46:37;;;;;;;33.97;21.92;;;1.30;98.40;;;;;;5081827;28;20210;-49
2022/03/14 02:49:05;;;;;;;33.03;19.30;;;1.20;98.80;;;;;;5081786;28;20206;-45
2022/03/14 02:51:34;;;;;;;32.75;20.55;;;1.20;99.10;;;;;;5081234;28;20241;-49
2022/03/14 02:54:04;;;;;;;34.13;21.25;;;1.10;99.70;;;;;;5081791;28;20233;-46
2022/03/14 02:56:32;;;;;;;36.80;21.08;;;1.20;99.60;;;;;;5081595;28;20255;-46
2022/03/14 02:59:00;;;;;;;28.20;18.45;;;1.30;99.70;;;;;;5081910;28;20538;-45
2022/03/14 03:01:27;;;;;;;34.83;19.52;;;1.30;99.80;;;;;;5081064;28;20195;-50
2022/03/14 03:03:56;;;;;;;37.53;20.17;;;1.10;99.90;;;;;;5081569;28;20217;-48
2022/03/14 03:06:23;;;;;;;34.00;20.50;;;1.00;99.90;;;;;;5081350;28;20202;-47
2022/03/14 03:08:52;;;;;;;36.33;20.25;;;1.00;99.90;;;;;;5082171;28;20258;-45
2022/03/14 03:11:21;;;;;;;45.40;20.80;;;0.90;99.90;;;;;;5081484;28;20286;-46
2022/03/14 03:13:52;;;;;;;29.00;18.83;;;1.00;99.90;;;;;;5081897;28;20199;-49
2022/03/14 03:16:19;;;;;;;30.33;19.38;;;1.00;99.90;;;;;;5081775;28;20422;-49
2022/03/14 03:18:46;;;;;;;30.10;20.88;;;1.00;99.90;;;;;;5081366;28;20532;-48
2022/03/14 03:21:16;;;;;;;36.55;21.17;;;0.80;99.90;;;;;;5081026;28;20218;-45
2022/03/14 03:23:43;;;;;;;33.78;21.40;;;0.80;99.90;;;;;;5081379;28;20233;-45
2022/03/14 03:26:11;;;;;;;29.90;19.38;;;0.90;99.90;;;;;;5083520;28;20207;-48
2022/03/14 03:28:38;;;;;;;33.85;20.08;;;0.80;99.90;;;;;;5081138;28;20202;-47
2022/03/14 03:31:08;;;;;;;38.38;21.90;;;0.80;99.90;;;;;;5081379;28;20223;-47
2022/03/14 03:33:37;;;;;;;33.47;21.15;;;0.80;99.90;;;;;;5081576;28;20198;-48
2022/03/14 03:36:07;;;;;;;40.17;20.45;;;0.90;99.90;;;;;;5080526;28;20219;-47
2022/03/14 03:38:35;;;;;;;29.33;19.45;;;0.90;99.90;;;;;;5080763;28;20256;-47
2022/03/14 03:41:03;;;;;;;37.67;20.88;;;0.80;99.90;;;;;;5080467;28;20222;-46
2022/03/14 03:43:30;;;;;;;37.80;22.80;;;0.80;99.90;;;;;;5080821;28;20226;-47
2022/03/14 03:45:58;;;;;;;34.38;19.45;;;0.90;99.90;;;;;;5086600;28;20203;-49
2022/03/14 03:48:25;;;;;;;30.48;20.63;;;0.90;99.90;;;;;;5084906;28;20203;-46
2022/03/14 03:50:53;;;;;;;30.27;19.40;;;1.00;99.90;;;;;;5081107;28;20265;-47
2022/03/14 03:53:20;;;;;;;37.60;20.60;;;1.00;99.90;;;;;;5079482;28;20510;-46
2022/03/14 03:55:47;;;;;;;31.90;20.70;;;0.90;99.90;;;;;;5080738;28;20227;-46
2022/03/14 03:58:15;;;;;;;29.95;18.33;;;0.90;99.90;;;;;;5080452;28;20199;-46
2022/03/14 04:00:42;;;;;;;35.53;22.48;;;0.90;99.90;;;;;;5080531;28;20234;-46
2022/03/14 04:03:09;;;;;;;35.75;21.20;;;0.80;99.90;;;;;;5079832;28;20230;-48
2022/03/14 04:05:39;;;;;;;31.98;21.52;;;0.80;99.90;;;;;;5080441;28;20428;-50
2022/03/14 04:08:10;;;;;;;30.23;18.65;;;0.90;99.90;;;;;;5080240;28;20214;-47
2022/03/14 04:10:38;;;;;;;33.40;20.67;;;0.80;99.90;;;;;;5080818;28;20225;-47
2022/03/14 04:13:06;;;;;;;30.60;20.40;;;0.80;99.90;;;;;;5080594;28;20205;-49
2022/03/14 04:15:44;;;;;;;36.97;21.15;;;0.90;99.90;;;;;;5080687;28;20219;-47
2022/03/14 04:18:12;;;;;;;31.67;19.75;;;0.90;99.90;;;;;;5081137;28;20563;-45
2022/03/14 04:20:41;;;;;;;31.75;21.80;;;0.90;99.90;;;;;;5079922;28;20219;-47
2022/03/14 04:23:08;;;;;;;29.83;19.73;;;0.90;99.90;;;;;;5080690;28;20199;-48
2022/03/14 04:25:36;;;;;;;25.08;18.00;;;0.90;99.90;;;;;;5080900;28;20198;-49
2022/03/14 04:28:03;;;;;;;35.03;20.23;;;0.80;99.90;;;;;;5082910;28;20512;-47
2022/03/14 04:30:31;;;;;;;31.45;18.92;;;0.80;99.90;;;;;;5081729;28;20227;-46
2022/03/14 04:32:58;;;;;;;34.20;18.90;;;0.80;99.90;;;;;;5080040;28;20518;-47
2022/03/14 04:35:26;;;;;;;34.35;21.73;;;0.80;99.90;;;;;;5080347;28;20219;-50
2022/03/14 04:37:53;;;;;;;37.33;19.10;;;0.80;99.90;;;;;;5080020;28;20198;-47
2022/03/14 04:40:20;;;;;;;33.65;19.73;;;0.80;99.90;;;;;;5079980;28;20548;-48
2022/03/14 04:42:48;;;;;;;29.90;19.73;;;0.80;99.90;;;;;;5079910;28;20194;-46
2022/03/14 04:45:15;;;;;;;29.17;18.52;;;0.80;99.90;;;;;;5080361;28;20237;-48
2022/03/14 04:47:42;;;;;;;28.95;17.75;;;0.70;99.90;;;;;;5080504;28;20236;-47
2022/03/14 04:50:10;;;;;;;42.50;19.77;;;0.70;99.90;;;;;;5081689;28;20260;-49
2022/03/14 04:52:37;;;;;;;31.88;17.77;;;0.60;99.90;;;;;;5081028;28;20202;-48
2022/03/14 04:55:05;;;;;;;27.88;18.70;;;0.60;99.90;;;;;;5081953;28;20219;-48
2022/03/14 04:57:32;;;;;;;23.45;17.55;;;0.50;99.90;;;;;;5080830;28;20256;-45
2022/03/14 04:59:59;;;;;;;32.20;18.48;;;0.40;99.90;;;;;;5080048;28;20222;-47
2022/03/14 05:02:26;;;;;;;27.75;18.65;;;0.40;99.90;;;;;;5068783;28;20688;-48
2022/03/14 05:04:53;;;;;;;33.17;19.77;;;0.40;99.90;;;;;;5075959;28;20200;-45
2022/03/14 05:07:21;;;;;;;30.63;20.00;;;0.50;99.90;;;;;;5082535;28;20214;-47
2022/03/14 05:09:48;;;;;;;34.33;19.17;;;0.40;99.90;;;;;;5081876;28;20233;-45
2022/03/14 05:12:15;;;;;;;35.05;17.98;;;0.50;99.90;;;;;;5084180;28;20245;-49
2022/03/14 05:14:43;;;;;;;40.35;21.40;;;0.60;99.90;;;;;;5083163;28;20199;-49
2022/03/14 05:17:10;;;;;;;39.83;22.55;;;0.60;99.90;;;;;;5081210;28;20217;-47
2022/03/14 05:19:38;;;;;;;41.30;23.70;;;0.70;99.90;;;;;;5077200;28;20215;-45
2022/03/14 05:22:07;;;;;;;42.60;24.27;;;0.50;99.90;;;;;;5091495;28;20209;-49
2022/03/14 05:24:35;;;;;;;37.75;20.67;;;0.70;99.90;;;;;;5101241;28;20194;-45
2022/03/14 05:27:03;;;;;;;32.13;20.88;;;0.70;99.90;;;;;;5103715;28;20202;-47
2022/03/14 05:29:31;;;;;;;38.60;19.60;;;0.60;99.90;;;;;;5084475;28;20294;-48
2022/03/14 05:31:58;;;;;;;34.55;20.27;;;0.70;99.90;;;;;;5082235;28;20212;-48
2022/03/14 05:34:25;;;;;;;34.03;20.50;;;0.70;99.90;;;;;;5082326;28;20249;-43
2022/03/14 05:36:52;;;;;;;31.88;18.60;;;0.80;99.90;;;;;;5082318;28;20223;-45
2022/03/14 05:39:19;;;;;;;41.85;20.23;;;0.70;99.90;;;;;;5082652;28;20195;-45
2022/03/14 05:41:47;;;;;;;22.25;16.45;;;0.80;99.90;;;;;;5084515;28;20198;-46
2022/03/14 05:44:14;;;;;;;30.58;17.58;;;0.90;99.90;;;;;;5084760;28;20409;-45
2022/03/14 05:46:42;;;;;;;25.55;18.02;;;0.90;99.90;;;;;;5081232;28;20205;-49
2022/03/14 05:49:10;;;;;;;34.50;18.55;;;1.00;99.90;;;;;;5080392;28;20215;-47
2022/03/14 05:51:39;;;;;;;29.05;17.98;;;0.90;99.90;;;;;;5069808;28;20207;-45
2022/03/14 05:54:08;;;;;;;25.83;16.73;;;1.00;99.90;;;;;;5071918;28;20720;-45
2022/03/14 05:56:36;;;;;;;19.23;15.48;;;1.20;99.90;;;;;;5081567;28;20218;-45
2022/03/14 05:59:03;;;;;;;24.95;17.02;;;1.20;99.90;;;;;;5093516;28;20209;-45
2022/03/14 06:01:30;;;;;;;33.17;17.73;;;1.20;99.90;;;;;;5078764;28;20199;-48
2022/03/14 06:03:57;;;;;;;25.65;17.05;;;1.40;99.90;;;;;;5073291;28;20432;-46
2022/03/14 06:06:24;;;;;;;26.20;15.80;;;1.70;99.90;;;;;;5082198;28;20199;-47
2022/03/14 06:08:52;;;;;;;24.92;15.45;;;1.90;99.90;;;;;;5082681;28;20203;-48
2022/03/14 06:11:19;;;;;;;26.67;16.17;;;2.00;99.90;;;;;;5081154;28;20242;-49
2022/03/14 06:13:47;;;;;;;20.23;14.07;;;2.00;99.90;;;;;;5082599;28;20221;-49
2022/03/14 06:16:14;;;;;;;23.40;13.32;;;2.00;99.90;;;;;;5082326;28;20229;-45
2022/03/14 06:18:41;;;;;;;24.48;14.20;;;2.00;99.90;;;;;;5081935;28;20387;-49
2022/03/14 06:21:09;;;;;;;18.70;15.00;;;2.20;99.90;;;;;;5082323;28;20254;-46
2022/03/14 06:23:36;;;;;;;21.27;12.63;;;3.10;99.90;;;;;;5082202;28;20209;-46
2022/03/14 06:26:03;;;;;;;27.05;15.68;;;4.50;99.50;;;;;;5082395;28;20212;-46
2022/03/14 06:28:31;;;;;;;28.60;13.25;;;5.50;94.90;;;;;;5080937;28;20225;-49
2022/03/14 06:30:58;;;;;;;26.10;14.27;;;6.40;93.00;;;;;;5081229;28;20222;-51
2022/03/14 06:33:26;;;;;;;22.35;14.82;;;7.50;90.60;;;;;;5080870;28;20203;-46
2022/03/14 06:35:53;;;;;;;27.77;15.48;;;8.70;83.50;;;;;;5077425;28;20518;-45
2022/03/14 06:38:20;;;;;;;27.60;16.38;;;9.20;78.90;;;;;;5074926;28;20253;-47
2022/03/14 06:40:47;;;;;;;24.98;16.85;;;8.80;76.70;;;;;;5077645;28;20565;-48
2022/03/14 06:43:15;;;;;;;22.70;14.30;;;8.60;77.10;;;;;;5081131;28;20246;-47
2022/03/14 06:45:44;;;;;;;23.02;15.40;;;8.30;77.00;;;;;;5085941;28;20211;-48
2022/03/14 06:48:12;;;;;;;31.98;17.13;;;8.40;77.70;;;;;;5083607;28;20205;-49
2022/03/14 06:50:39;;;;;;;18.73;14.75;;;8.60;75.70;;;;;;5083341;28;20232;-46
2022/03/14 06:53:07;;;;;;;24.63;16.83;;;8.70;75.90;;;;;;5093398;28;20425;-45
2022/03/14 06:55:35;;;;;;;31.77;15.57;;;8.30;75.60;;;;;;5078514;28;20229;-45
2022/03/14 06:58:02;;;;;;;27.92;16.10;;;8.00;76.10;;;;;;5079779;28;20240;-49
2022/03/14 07:00:30;;;;;;;21.45;14.15;;;8.40;76.00;;;;;;5080983;28;20224;-48
2022/03/14 07:02:57;;;;;;;23.50;15.98;;;8.30;75.00;;;;;;5081507;28;20196;-49
2022/03/14 07:05:26;;;;;;;18.15;14.70;;;8.40;75.60;;;;;;5080641;28;20276;-46
2022/03/14 07:07:54;;;;;;;29.60;15.23;;;8.90;73.60;;;;;;5081201;28;20374;-47
2022/03/14 07:10:21;;;;;;;20.30;13.63;;;9.80;71.70;;;;;;5080419;28;20221;-48
2022/03/14 07:12:50;;;;;;;19.52;13.52;;;10.60;69.80;;;;;;5081726;28;20213;-46
2022/03/14 07:15:23;;;;;;;23.52;15.05;;;11.40;65.40;;;;;;5080888;28;20230;-46
2022/03/14 07:17:50;;;;;;;21.23;14.48;;;10.30;66.30;;;;;;5081678;28;20404;-51
2022/03/14 07:20:19;;;;;;;21.05;14.98;;;10.20;67.70;;;;;;5080984;28;20455;-46
2022/03/14 07:22:58;;;;;;;15.98;13.02;;;10.70;66.30;;;;;;5081037;28;20400;-48
2022/03/14 07:25:27;;;;;;;21.15;13.30;;;11.70;64.00;;;;;;5080940;28;20207;-48
2022/03/14 07:27:58;;;;;;;22.33;13.55;;;13.90;60.30;;;;;;5080506;28;20210;-48
2022/03/14 07:30:26;;;;;;;18.48;14.18;;;14.60;56.30;;;;;;5080672;28;20239;-47
2022/03/14 07:32:54;;;;;;;17.73;12.80;;;15.00;55.30;;;;;;5080759;28;20241;-47
2022/03/14 07:35:23;;;;;;;19.00;12.85;;;15.10;53.20;;;;;;5081024;28;20473;-47
2022/03/14 07:37:51;;;;;;;20.20;14.32;;;14.30;55.10;;;;;;5080942;28;20204;-45
2022/03/14 07:40:19;;;;;;;25.20;14.03;;;14.00;55.20;;;;;;5080688;28;20226;-47
2022/03/14 07:42:53;;;;;;;20.20;11.37;;;14.20;54.90;;;;;;5086835;28;20412;-48
2022/03/14 07:45:24;;;;;;;23.83;14.57;;;14.80;53.60;;;;;;5086860;28;20407;-52
2022/03/14 07:47:53;;;;;;;21.10;13.57;;;14.60;53.60;;;;;;5086895;28;20430;-56
2022/03/14 07:50:20;;;;;;;15.80;12.17;;;15.40;53.20;;;;;;5087154;28;20520;-49
2022/03/14 07:52:48;;;;;;;16.17;12.30;;;17.20;50.60;;;;;;5097056;28;20461;-52
2022/03/14 07:55:15;;;;;;;21.07;13.30;;;16.30;49.00;;;;;;5102395;28;20433;-52
2022/03/14 07:57:43;;;;;;;15.87;10.80;;;16.90;49.00;;;;;;5100164;28;20435;-48
2022/03/14 08:00:14;;;;;;;25.10;11.97;;;17.00;48.30;;;;;;5100298;28;20443;-46
2022/03/14 08:02:43;;;;;;;19.50;11.97;;;16.90;48.10;;;;;;5100642;28;20397;-50
2022/03/14 08:05:16;;;;;;;16.30;10.50;;;17.00;47.30;;;;;;5090715;28;20658;-51
2022/03/14 08:07:47;;;;;;;24.63;13.77;;;16.00;48.30;;;;;;5080026;28;20412;-50
2022/03/14 08:10:17;;;;;;;16.40;10.93;;;16.00;47.90;;;;;;5080300;28;20429;-52
2022/03/14 08:12:56;;;;;;;15.10;12.07;;;16.40;47.30;;;;;;5060961;28;20414;-49
2022/03/14 08:15:30;;;;;;;15.80;11.53;;;15.80;47.40;;;;;;5079760;28;20448;-50
2022/03/14 08:18:07;;;;;;;17.87;12.00;;;16.80;46.80;;;;;;5080483;28;20412;-51
2022/03/14 08:20:37;;;;;;;15.50;10.70;;;17.80;45.40;;;;;;5080108;28;20421;-49
2022/03/14 08:23:05;;;;;;;15.77;10.60;;;17.90;44.50;;;;;;5080257;28;20406;-50
2022/03/14 08:25:36;;;;;;;17.20;10.40;;;17.30;44.60;;;;;;5080013;28;20413;-44
2022/03/14 08:28:04;;;;;;;17.50;12.77;;;16.10;46.10;;;;;;5080587;28;20426;-49
2022/03/14 08:30:32;;;;;;;18.07;11.93;;;14.90;47.20;;;;;;5079672;28;21008;-47
2022/03/14 08:33:00;;;;;;;19.90;12.67;;;16.10;46.90;;;;;;5080095;28;20401;-47
2022/03/14 08:35:28;;;;;;;18.20;11.37;;;16.60;45.10;;;;;;5079383;28;20406;-49
2022/03/14 08:37:56;;;;;;;14.60;12.00;;;16.50;46.40;;;;;;5080342;28;20510;-51
2022/03/14 08:40:26;;;;;;;17.33;11.23;;;18.10;44.10;;;;;;5079421;28;20530;-45
2022/03/14 08:42:55;;;;;;;16.47;10.30;;;17.00;44.10;;;;;;5079949;28;20407;-47
2022/03/14 08:45:24;;;;;;;13.50;9.57;;;16.80;44.70;;;;;;5080130;28;20427;-46
2022/03/14 08:47:53;;;;;;;12.87;9.83;;;17.50;43.80;;;;;;5079818;28;20434;-50
2022/03/14 08:50:20;;;;;;;12.20;8.50;;;17.00;43.30;;;;;;5079805;28;20492;-47
2022/03/14 08:52:48;;;;;;;11.07;9.13;;;17.20;43.30;;;;;;5077238;28;20424;-50
2022/03/14 08:55:15;;;;;;;23.53;11.00;;;17.00;42.70;;;;;;5079888;28;20402;-49
2022/03/14 08:57:43;;;;;;;16.53;9.60;;;17.70;42.10;;;;;;5078661;28;20482;-51
2022/03/14 09:00:11;;;;;;;12.40;9.83;;;17.50;42.40;;;;;;5083467;28;20452;-47
2022/03/14 09:02:38;;;;;;;15.40;9.97;;;18.00;42.20;;;;;;5084673;28;20406;-52
2022/03/14 09:05:06;;;;;;;10.30;8.73;;;18.00;42.40;;;;;;5085057;28;20444;-50
2022/03/14 09:07:34;;;;;;;11.97;8.97;;;17.10;42.90;;;;;;5086077;28;20770;-47
2022/03/14 09:10:06;;;;;;;13.93;8.43;;;17.40;42.50;;;;;;5082296;28;20451;-51
2022/03/14 09:12:33;;;;;;;11.23;7.83;;;16.40;42.60;;;;;;5085664;28;20416;-47
2022/03/14 09:15:02;;;;;;;11.50;9.47;;;16.20;42.70;;;;;;5087824;28;20447;-47
2022/03/14 09:17:31;;;;;;;12.60;9.67;;;16.40;43.00;;;;;;5083059;28;20453;-52
2022/03/14 09:20:00;;;;;;;16.57;9.17;;;16.20;43.50;;;;;;5083346;28;20471;-49
2022/03/14 09:22:28;;;;;;;11.50;7.97;;;16.10;43.40;;;;;;5082546;28;20420;-54
2022/03/14 09:24:56;;;;;;;12.40;9.93;;;16.20;43.50;;;;;;5082390;28;20612;-47
2022/03/14 09:27:24;;;;;;;12.13;9.20;;;16.00;43.50;;;;;;5082208;28;20419;-51
2022/03/14 09:29:52;;;;;;;12.10;7.80;;;15.90;43.70;;;;;;5082249;28;20458;-51
2022/03/14 09:32:20;;;;;;;8.30;7.40;;;16.60;43.70;;;;;;5081771;28;20465;-52
2022/03/14 09:34:47;;;;;;;10.90;8.50;;;16.40;42.30;;;;;;5081876;28;20407;-51
2022/03/14 09:37:15;;;;;;;9.80;7.60;;;15.00;43.60;;;;;;5080565;28;20480;-49
2022/03/14 09:39:42;;;;;;;10.30;8.32;;;13.50;45.40;;;;;;5081595;28;20423;-51
2022/03/14 09:42:13;;;;;;;9.10;7.70;;;12.90;47.10;;;;;;5061869;28;20454;-46
2022/03/14 09:44:42;;;;;;;8.48;7.07;;;12.50;47.00;;;;;;5061207;28;20269;-51
2022/03/14 09:47:11;;;;;;;11.57;7.15;;;12.70;47.00;;;;;;5061901;28;20212;-46
2022/03/14 09:49:42;;;;;;;9.20;7.43;;;12.70;46.30;;;;;;5061913;28;20219;-48
2022/03/14 09:52:11;;;;;;;10.35;7.07;;;12.60;47.20;;;;;;5061917;28;20215;-46
2022/03/14 09:54:38;;;;;;;10.15;8.57;;;12.60;47.00;;;;;;5061430;28;20207;-51
2022/03/14 09:57:05;;;;;;;11.23;8.18;;;12.40;48.20;;;;;;5074042;28;20226;-46
2022/03/14 09:59:35;;;;;;;9.73;7.03;;;12.30;47.40;;;;;;5080914;28;20239;-47
2022/03/14 10:02:03;;;;;;;9.55;6.53;;;12.20;46.90;;;;;;5086055;28;20218;-47
2022/03/14 10:04:31;;;;;;;10.27;7.95;;;12.10;47.70;;;;;;5087216;28;20207;-53
2022/03/14 10:06:58;;;;;;;7.60;6.85;;;12.20;48.10;;;;;;5086794;28;20257;-49
2022/03/14 10:09:26;;;;;;;7.35;6.20;;;12.30;47.40;;;;;;5084806;28;20576;-47
2022/03/14 10:11:54;;;;;;;6.95;5.75;;;12.30;47.50;;;;;;5082190;28;20221;-46
2022/03/14 10:14:22;;;;;;;7.53;6.72;;;12.30;46.90;;;;;;5082546;28;20203;-49
2022/03/14 10:16:54;;;;;;;16.70;7.63;;;12.40;46.60;;;;;;5082693;28;20218;-48
2022/03/14 10:19:29;;;;;;;8.07;5.97;;;12.50;46.50;;;;;;5081939;28;20218;-52
2022/03/14 10:22:13;;;;;;;7.85;6.97;;;12.40;48.00;;;;;;5082458;28;20281;-47
2022/03/14 10:24:41;;;;;;;8.65;6.68;;;12.40;46.80;;;;;;5081985;28;20193;-49
2022/03/14 10:27:11;;;;;;;11.48;8.45;;;12.40;46.50;;;;;;5082200;28;20194;-45
2022/03/14 10:29:41;;;;;;;7.38;6.57;;;12.40;47.60;;;;;;5082209;28;20238;-48
2022/03/14 10:32:31;;;;;;;9.57;6.70;;;12.40;47.90;;;;;;5082126;28;20282;-48
2022/03/14 10:35:04;;;;;;;8.38;6.50;;;12.30;48.30;;;;;;5081655;28;20195;-48
2022/03/14 10:37:34;;;;;;;8.57;6.43;;;12.40;48.30;;;;;;5081527;28;20293;-45
2022/03/14 10:40:05;;;;;;;8.07;6.13;;;12.40;48.10;;;;;;5082062;28;20221;-50
2022/03/14 10:42:40;;;;;;;12.73;7.05;;;12.50;47.90;;;;;;5081688;28;20195;-49
2022/03/14 10:45:15;;;;;;;7.68;5.53;;;12.30;47.40;;;;;;5081994;28;20194;-48
2022/03/14 10:47:54;;;;;;;7.72;6.30;;;12.30;47.60;;;;;;5081650;28;20210;-46
2022/03/14 10:50:47;;;;;;;6.30;5.30;;;12.30;47.60;;;;;;5081768;28;20222;-44
2022/03/14 10:53:20;;;;;;;9.57;5.22;;;12.30;47.90;;;;;;5083413;28;20210;-49
2022/03/14 10:55:49;;;;;;;6.57;5.90;;;12.50;47.10;;;;;;5087144;28;20209;-48
2022/03/14 10:58:24;;;;;;;7.32;6.25;;;12.70;47.40;;;;;;5085327;28;20229;-49
2022/03/14 11:00:55;;;;;;;9.80;6.63;;;12.70;46.90;;;;;;5083306;28;20329;-48
2022/03/14 11:03:41;;;;;;;12.95;7.78;;;12.70;46.60;;;;;;5061811;28;20226;-50
2022/03/14 11:06:14;;;;;;;7.88;6.00;;;12.70;46.90;;;;;;5081542;28;20199;-49
2022/03/14 11:08:43;;;;;;;7.57;6.03;;;12.60;46.80;;;;;;5083294;28;20524;-49
2022/03/14 11:11:13;;;;;;;6.82;5.68;;;12.50;46.70;;;;;;5081187;28;20211;-48
2022/03/14 11:13:50;;;;;;;7.97;6.40;;;12.50;47.20;;;;;;5081553;28;20426;-52
2022/03/14 11:16:27;;;;;;;9.05;6.70;;;12.60;46.90;;;;;;5081269;28;20222;-49
2022/03/14 11:18:55;;;;;;;8.68;6.57;;;12.60;46.70;;;;;;5081447;28;20202;-48
2022/03/14 11:21:28;;;;;;;6.80;5.78;;;12.80;46.80;;;;;;5080247;28;20226;-47
2022/03/14 11:23:55;;;;;;;19.00;5.80;;;12.80;46.30;;;;;;5080736;28;20517;-49
2022/03/14 11:26:25;;;;;;;6.70;5.57;;;12.80;46.30;;;;;;5080820;28;20198;-51
2022/03/14 11:28:55;;;;;;;7.45;6.22;;;12.90;46.20;;;;;;5080789;28;20237;-47
2022/03/14 11:31:23;;;;;;;6.10;5.50;;;12.90;45.90;;;;;;5080928;28;20230;-51
2022/03/14 11:33:51;;;;;;;6.00;5.15;;;12.90;46.30;;;;;;5080994;28;20218;-51
2022/03/14 11:36:19;;;;;;;8.57;6.20;;;13.00;45.70;;;;;;5081348;28;20206;-49
2022/03/14 11:38:47;;;;;;;11.73;5.10;;;13.20;46.70;;;;;;5079851;28;20637;-51
2022/03/14 11:41:16;;;;;;;7.95;5.85;;;13.30;45.50;;;;;;5067992;28;20211;-50
2022/03/14 11:43:45;;;;;;;6.78;6.07;;;13.30;45.40;;;;;;5079287;28;20539;-50
2022/03/14 11:46:35;;;;;;;5.95;5.35;;;13.40;45.70;;;;;;5075066;28;20560;-47
2022/03/14 11:49:29;;;;;;;6.47;5.25;;;13.40;46.60;;;;;;5080927;28;20203;-47
2022/03/14 11:52:22;;;;;;;8.18;7.40;;;13.30;46.00;;;;;;5080237;28;20207;-50
2022/03/14 11:54:58;;;;;;;6.47;5.80;;;13.40;46.40;;;;;;5080938;28;20206;-48
2022/03/14 11:57:44;;;;;;;7.43;6.68;;;13.30;46.70;;;;;;5080264;28;20257;-49
2022/03/14 12:00:25;;;;;;;7.38;6.35;;;13.40;46.30;;;;;;5081829;28;20218;-47
2022/03/14 12:03:37;;;;;;;7.30;6.22;;;13.50;47.00;;;;;;5082654;28;20209;-53
2022/03/14 12:06:04;;;;;;;9.45;7.82;;;13.60;47.70;;;;;;5080908;28;20641;-49
2022/03/14 12:08:32;;;;;;;10.43;7.63;;;13.50;48.50;;;;;;5080210;28;20421;-48
2022/03/14 12:11:28;;;;;;;8.75;6.85;;;13.60;48.10;;;;;;5079991;28;20227;-48
2022/03/14 12:13:55;;;;;;;8.15;6.38;;;13.60;48.50;;;;;;5080280;28;20560;-48
2022/03/14 12:16:37;;;;;;;9.02;6.22;;;13.60;49.30;;;;;;5080168;28;20214;-51
2022/03/14 12:19:49;;;;;;;7.20;6.50;;;13.70;49.80;;;;;;5080254;28;20662;-46
2022/03/14 12:22:29;;;;;;;11.57;9.27;;;13.60;50.50;;;;;;5071623;28;20360;-49
2022/03/14 12:24:59;;;;;;;8.25;7.43;;;13.50;50.60;;;;;;5079722;28;20620;-47
2022/03/14 12:27:35;;;;;;;7.97;6.30;;;13.50;50.60;;;;;;5081260;28;20203;-47
2022/03/14 12:30:24;;;;;;;8.65;7.55;;;13.50;49.90;;;;;;5082240;28;20218;-48
2022/03/14 12:32:52;;;;;;;8.93;7.75;;;13.40;50.60;;;;;;5082446;28;20217;-48
2022/03/14 12:35:22;;;;;;;8.75;6.85;;;13.40;50.30;;;;;;5085296;28;20228;-49
2022/03/14 12:38:11;;;;;;;14.05;7.45;;;13.30;50.40;;;;;;5084261;28;20218;-47
2022/03/14 12:40:51;;;;;;;9.88;7.90;;;13.30;50.80;;;;;;5084749;28;20215;-48
2022/03/14 12:43:28;;;;;;;12.32;8.95;;;13.30;51.20;;;;;;5084413;28;20255;-46
2022/03/14 12:46:01;;;;;;;10.20;7.32;;;13.20;52.00;;;;;;5084638;28;20397;-48
2022/03/14 12:48:30;;;;;;;8.82;8.00;;;13.10;51.90;;;;;;5084101;28;20213;-48
2022/03/14 12:51:06;;;;;;;7.22;6.47;;;13.10;52.00;;;;;;5084618;28;20467;-48